Laukaa, Finland
Kieli:  Suomi
CurCond
Päivitetty23/09/2019 07:50 
 

Lähistön Lentoasemien Säätiloja:

 

EFJY - Jyvaskyla (mil/C,) Finland
Etäisyys Sääasemalta: PKo 21km
Päivitetty: 23/09/2019 07:20
Joitain Pilviä
Joitain Pilviä
 Tuulen suunta Lu
Tuuli: Lu 7 km/h
Lämpötila: -1°C
Tuulen purevuus: -4°C
Kastepiste: -2°C
Ilmankosteus: 93%
Ilmanpaine: 1021 hPa
Pilvisyys: Joitain Pilviä
Näkyvyys: 10 km
Pilvisyystiedot: Joitain Pilviä 1311 m
2019/09/23 04:20 EFJY 230420Z AUTO 32004KT 290V350 9999 FEW043 M01/M02 Q1021
EFHA - Halli (fin-Afb), Finland
Etäisyys Sääasemalta: Lo 56km
Päivitetty: 23/09/2019 07:20
Selkeätä
Selkeätä
 Tuulen suunta LLu
Tuuli: LLu 9 km/h
Lämpötila: 1°C
Tuulen purevuus: -2°C
Kastepiste: 0°C
Ilmankosteus: 93%
Ilmanpaine: 1022 hPa
Yhteenveto: Selkeätä
Näkyvyys: Enemmän Kuin 10 km
2019/09/23 04:20 EFHA 230420Z AUTO 30005KT CAVOK 01/00 Q1022
EFMI - Mikkeli, Finland
Etäisyys Sääasemalta: IKa 105km
Päivitetty: 23/09/2019 07:20
Selkeätä
Selkeätä
 Tuulen suunta LLu
Tuuli: LLu 9 km/h
Lämpötila: 2°C
Tuulen purevuus: -1°C
Kastepiste: 2°C
Ilmankosteus: 100%
Ilmanpaine: 1020 hPa
Yhteenveto: Selkeätä
Näkyvyys: Enemmän Kuin 10 km
2019/09/23 04:20 EFMI 230420Z AUTO 30005KT 260V350 CAVOK 02/02 Q1020
 
EFTP - Tampere/Pirkkala, Finland
Etäisyys Sääasemalta: Lo 135km
Päivitetty: 23/09/2019 07:20
Selkeätä
Selkeätä
 Tuulen suunta Lu
Tuuli: Lu 7 km/h
Lämpötila: 3°C
Tuulen purevuus: 1°C
Kastepiste: 1°C
Ilmankosteus: 87%
Ilmanpaine: 1023 hPa
Yhteenveto: Selkeätä
Näkyvyys: Enemmän Kuin 10 km
2019/09/23 04:20 EFTP 230420Z AUTO 31004KT CAVOK 03/01 Q1023
EFKU - Kuopio (mil/Civ), Finland
Etäisyys Sääasemalta: Ko 146km
Päivitetty: 23/09/2019 07:20
Selkeätä
Selkeätä
 Tuulen suunta LLu
Tuuli: LLu 19 km/h
Lämpötila: 1°C
Tuulen purevuus: -4°C
Kastepiste: 0°C
Ilmankosteus: 93%
Ilmanpaine: 1019 hPa
Yhteenveto: Selkeätä
Näkyvyys: Enemmän Kuin 10 km
2019/09/23 04:20 EFKU 230420Z AUTO 30010KT CAVOK 01/00 Q1019
EFSI - Seinajoki-Ilmajo, Finland
Etäisyys Sääasemalta: LLu 149km
Päivitetty: 23/09/2019 07:20
Heikko, Kuurottaisia sateita, Enimmäkseen pilvistä
Heikko, Kuurottaisia sateita, Enimmäkseen pilvistä
 Tuulen suunta PLu
Tuuli: PLu 7 km/h
Lämpötila: 3°C
Tuulen purevuus: 1°C
Kastepiste: 2°C
Ilmankosteus: 93%
Ilmanpaine: 1023 hPa
Yhteenveto: Heikko, Kuurottaisia sateita
Pilvisyys: Enimmäkseen pilvistä
Näkyvyys: 10 km
Pilvisyystiedot: Joitain Pilviä 762 m
Puolipilvistä 1402 m
Enimmäkseen pilvistä 1829 m
2019/09/23 04:20 EFSI 230420Z AUTO 34004KT 9999 -SHUP FEW025 SCT046 BKN060 03/02 Q1023